Time;durP1;ratioP1;P1;durP2;ratioP2;P2;SDS_P1;SDS_P2;PMS_P1;PMS_P2;Temp;Humidity;BMP_temperature;BMP_pressure;BME280_temperature;BME280_humidity;BME280_pressure;Samples;Min_cycle;Max_cycle;Signal;HPM_P1;HPM_P2
2023/12/26 00:06:21;;;;;;;;;;;12.40;99.90;;;;;;6749890;87;20578;-82
2023/12/26 00:16:21;;;;;;;;;;;12.40;99.90;;;;;;6752936;88;20079;-81
2023/12/26 00:26:22;;;;;;;;;;;12.40;99.90;;;;;;6748027;88;20131;-81
2023/12/26 00:36:24;;;;;;;;;;;12.30;99.90;;;;;;6742032;88;20563;-82
2023/12/26 00:46:24;;;;;;;;;;;12.40;99.90;;;;;;6744696;88;20148;-82
2023/12/26 00:56:25;;;;;;;;;;;12.30;99.90;;;;;;6746827;88;20054;-82
2023/12/26 01:06:25;;;;;;;;;;;12.30;99.90;;;;;;6753866;87;20044;-84
2023/12/26 01:16:27;;;;;;;;;;;12.00;99.90;;;;;;6751585;88;20184;-81
2023/12/26 01:26:30;;;;;;;;;;;12.00;99.90;;;;;;6749577;88;20049;-81
2023/12/26 01:36:32;;;;;;;;;;;11.90;99.90;;;;;;6759832;88;20205;-81
2023/12/26 01:46:33;;;;;;;;;;;11.80;99.90;;;;;;6754007;88;20065;-80
2023/12/26 01:56:34;;;;;;;;;;;11.70;99.90;;;;;;6755278;88;20050;-81
2023/12/26 02:06:35;;;;;;;;;;;11.60;99.90;;;;;;6758884;88;20340;-81
2023/12/26 02:16:37;;;;;;;;;;;11.50;99.90;;;;;;6748925;88;20437;-81
2023/12/26 02:26:41;;;;;;;;;;;11.50;99.90;;;;;;6761090;88;20496;-82
2023/12/26 02:36:42;;;;;;;;;;;11.40;99.90;;;;;;6753736;88;20132;-82
2023/12/26 02:46:42;;;;;;;;;;;11.30;99.90;;;;;;6756429;88;20053;-81
2023/12/26 02:56:43;;;;;;;;;;;11.30;99.90;;;;;;6752737;88;20046;-81
2023/12/26 03:06:43;;;;;;;;;;;11.30;99.90;;;;;;6752662;88;20063;-82
2023/12/26 03:16:44;;;;;;;;;;;11.30;99.90;;;;;;6753655;88;20581;-81
2023/12/26 03:26:44;;;;;;;;;;;11.30;99.90;;;;;;6760359;88;20073;-82
2023/12/26 03:36:45;;;;;;;;;;;11.30;99.90;;;;;;6737269;88;20109;-81
2023/12/26 03:46:45;;;;;;;;;;;11.00;99.90;;;;;;6740559;88;20135;-81
2023/12/26 03:56:46;;;;;;;;;;;10.60;99.90;;;;;;6751284;88;20057;-82
2023/12/26 04:06:46;;;;;;;;;;;10.40;99.90;;;;;;6754240;88;20103;-82
2023/12/26 04:16:47;;;;;;;;;;;10.30;99.90;;;;;;6752692;88;20060;-81
2023/12/26 04:26:47;;;;;;;;;;;10.40;99.90;;;;;;6752192;88;20058;-81
2023/12/26 04:36:48;;;;;;;;;;;10.40;99.90;;;;;;6750704;88;20128;-81
2023/12/26 04:46:48;;;;;;;;;;;10.60;99.90;;;;;;6747394;88;20049;-81
2023/12/26 04:56:49;;;;;;;;;;;10.60;99.90;;;;;;6753948;88;20187;-82
2023/12/26 05:06:49;;;;;;;;;;;10.80;99.90;;;;;;6754049;88;20082;-82
2023/12/26 05:16:50;;;;;;;;;;;10.80;99.90;;;;;;6753463;88;20140;-80
2023/12/26 05:26:51;;;;;;;;;;;10.80;99.90;;;;;;6756053;88;20110;-81
2023/12/26 05:36:51;;;;;;;;;;;10.90;99.90;;;;;;6758953;88;20092;-81
2023/12/26 05:46:53;;;;;;;;;;;11.00;99.90;;;;;;6757365;88;20062;-80
2023/12/26 05:56:53;;;;;;;;;;;11.00;99.90;;;;;;6756341;88;20080;-79
2023/12/26 06:06:53;;;;;;;;;;;11.00;99.90;;;;;;6755922;88;20091;-82
2023/12/26 06:16:55;;;;;;;;;;;10.90;99.90;;;;;;6758980;88;20549;-82
2023/12/26 06:26:55;;;;;;;;;;;10.60;99.90;;;;;;6758255;88;20103;-83
2023/12/26 06:36:56;;;;;;;;;;;10.40;99.90;;;;;;6757169;88;20065;-81
2023/12/26 06:46:56;;;;;;;;;;;10.50;99.90;;;;;;6754765;88;20258;-83
2023/12/26 06:56:57;;;;;;;;;;;10.60;99.90;;;;;;6754736;88;20641;-82
2023/12/26 07:06:57;;;;;;;;;;;10.60;99.90;;;;;;6750696;88;20062;-82
2023/12/26 07:16:58;;;;;;;;;;;10.60;99.90;;;;;;6754459;87;20095;-83
2023/12/26 07:26:58;;;;;;;;;;;10.60;99.90;;;;;;6755568;88;20687;-81
2023/12/26 07:36:58;;;;;;;;;;;10.50;99.90;;;;;;6753089;88;20030;-81
2023/12/26 07:46:59;;;;;;;;;;;10.40;99.90;;;;;;6762411;88;20054;-81
2023/12/26 07:56:59;;;;;;;;;;;10.40;99.90;;;;;;6760750;88;20219;-81
2023/12/26 08:07:00;;;;;;;;;;;10.50;99.90;;;;;;6762288;87;20078;-80
2023/12/26 08:17:01;;;;;;;;;;;10.50;99.90;;;;;;6759700;88;20149;-82
2023/12/26 08:27:01;;;;;;;;;;;10.60;99.90;;;;;;6757024;88;20498;-82
2023/12/26 08:37:02;;;;;;;;;;;10.70;99.90;;;;;;6753458;87;20085;-81
2023/12/26 08:47:03;;;;;;;;;;;10.70;99.90;;;;;;6751181;88;20062;-81
2023/12/26 08:57:04;;;;;;;;;;;10.70;99.90;;;;;;6756027;88;20050;-81
2023/12/26 09:07:04;;;;;;;;;;;10.70;99.90;;;;;;6754253;88;20506;-81
2023/12/26 09:17:05;;;;;;;;;;;10.60;99.90;;;;;;6754205;88;20496;-81
2023/12/26 09:27:05;;;;;;;;;;;10.90;99.90;;;;;;6753563;88;20066;-81
2023/12/26 09:37:06;;;;;;;;;;;11.00;99.90;;;;;;6755059;87;20536;-81
2023/12/26 09:47:07;;;;;;;;;;;11.10;99.90;;;;;;6753120;88;20067;-81
2023/12/26 09:57:09;;;;;;;;;;;11.00;99.90;;;;;;6754123;88;20053;-81
2023/12/26 10:07:09;;;;;;;;;;;11.00;99.90;;;;;;6754889;88;20053;-82
2023/12/26 10:17:12;;;;;;;;;;;11.10;99.90;;;;;;6756175;88;20075;-82
2023/12/26 10:27:13;;;;;;;;;;;11.30;99.90;;;;;;6737530;88;20059;-80
2023/12/26 10:37:13;;;;;;;;;;;11.80;99.90;;;;;;6750109;88;20740;-80
2023/12/26 10:47:14;;;;;;;;;;;12.10;99.90;;;;;;6754665;88;20058;-82
2023/12/26 10:57:15;;;;;;;;;;;11.90;99.90;;;;;;6758146;88;20050;-81
2023/12/26 11:07:16;;;;;;;;;;;12.00;99.90;;;;;;6759415;88;20113;-80
2023/12/26 11:17:16;;;;;;;;;;;12.10;99.90;;;;;;6760311;88;20519;-81
2023/12/26 11:27:17;;;;;;;;;;;11.60;99.90;;;;;;6754848;87;20596;-82
2023/12/26 11:37:17;;;;;;;;;;;11.60;99.90;;;;;;6756988;88;20092;-79
2023/12/26 11:47:18;;;;;;;;;;;11.50;99.90;;;;;;6763892;88;20782;-81
2023/12/26 11:57:18;;;;;;;;;;;11.60;99.90;;;;;;6765086;88;20352;-81
2023/12/26 12:07:19;;;;;;;;;;;11.60;99.90;;;;;;6758017;88;20222;-80
2023/12/26 12:17:19;;;;;;;;;;;11.60;99.90;;;;;;6743056;88;20055;-82
2023/12/26 12:27:20;;;;;;;;;;;11.60;99.90;;;;;;6741069;88;20050;-82
2023/12/26 12:37:21;;;;;;;;;;;12.80;99.90;;;;;;6756711;87;20573;-85
2023/12/26 12:47:21;;;;;;;;;;;13.10;99.90;;;;;;6747653;88;20252;-81
2023/12/26 12:57:22;;;;;;;;;;;12.70;99.90;;;;;;6745810;88;20085;-82
2023/12/26 13:07:22;;;;;;;;;;;12.40;99.90;;;;;;6748344;88;20108;-81
2023/12/26 13:17:23;;;;;;;;;;;12.30;99.90;;;;;;6737230;88;20154;-81
2023/12/26 13:27:24;;;;;;;;;;;12.40;99.90;;;;;;6750679;88;20863;-82
2023/12/26 13:37:24;;;;;;;;;;;12.40;99.90;;;;;;6759260;88;20066;-81
2023/12/26 13:47:24;;;;;;;;;;;11.80;99.90;;;;;;6753620;88;20581;-81
2023/12/26 13:57:25;;;;;;;;;;;11.20;99.90;;;;;;6758746;88;20079;-80
2023/12/26 14:07:25;;;;;;;;;;;11.00;99.90;;;;;;6754624;88;20066;-80
2023/12/26 14:17:26;;;;;;;;;;;10.80;99.90;;;;;;6754793;88;20058;-79
2023/12/26 14:27:26;;;;;;;;;;;10.70;99.90;;;;;;6728897;88;20084;-79
2023/12/26 14:37:27;;;;;;;;;;;10.50;99.90;;;;;;6759413;88;20047;-79
2023/12/26 14:47:27;;;;;;;;;;;10.30;99.90;;;;;;6754786;88;20054;-80
2023/12/26 14:57:28;;;;;;;;;;;10.20;99.90;;;;;;6746423;88;20074;-79
2023/12/26 15:07:28;;;;;;;;;;;10.10;99.90;;;;;;6734708;88;20072;-81
2023/12/26 15:17:29;;;;;;;;;;;9.80;99.90;;;;;;6717324;88;20058;-81
2023/12/26 15:27:29;;;;;;;;;;;9.70;99.90;;;;;;6725407;88;20082;-81
2023/12/26 15:37:30;;;;;;;;;;;9.60;99.90;;;;;;6719464;88;20080;-80
2023/12/26 15:47:30;;;;;;;;;;;9.40;99.90;;;;;;6727344;88;20055;-80
2023/12/26 15:57:31;;;;;;;;;;;9.20;99.90;;;;;;6733680;88;20561;-80
2023/12/26 16:07:32;;;;;;;;;;;9.00;99.90;;;;;;6737156;88;20071;-81
2023/12/26 16:17:32;;;;;;;;;;;8.80;99.90;;;;;;6737847;88;20102;-80
2023/12/26 16:27:33;;;;;;;;;;;8.70;99.90;;;;;;6739052;88;20534;-80
2023/12/26 16:37:34;;;;;;;;;;;8.50;99.90;;;;;;6741922;88;20098;-81
2023/12/26 16:47:36;;;;;;;;;;;8.50;99.90;;;;;;6743256;88;20050;-80
2023/12/26 16:57:36;;;;;;;;;;;8.40;99.90;;;;;;6742825;88;20068;-81
2023/12/26 17:07:37;;;;;;;;;;;8.40;99.90;;;;;;6744755;88;20030;-80
2023/12/26 17:17:37;;;;;;;;;;;8.30;99.90;;;;;;6745425;88;20232;-82
2023/12/26 17:27:38;;;;;;;;;;;8.20;99.90;;;;;;6745373;88;20030;-81
2023/12/26 17:37:38;;;;;;;;;;;8.10;99.90;;;;;;6745240;88;20133;-82
2023/12/26 17:47:39;;;;;;;;;;;8.00;99.90;;;;;;6742047;88;20133;-81
2023/12/26 17:57:39;;;;;;;;;;;8.00;99.90;;;;;;6743195;88;20480;-81
2023/12/26 18:07:39;;;;;;;;;;;7.90;99.90;;;;;;6744975;88;20053;-81
2023/12/26 18:17:40;;;;;;;;;;;7.80;99.90;;;;;;6744599;88;20063;-81
2023/12/26 18:27:40;;;;;;;;;;;7.70;99.90;;;;;;6743819;88;20965;-81
2023/12/26 18:37:41;;;;;;;;;;;7.50;99.90;;;;;;6744014;88;20077;-81
2023/12/26 18:47:43;;;;;;;;;;;7.60;99.90;;;;;;6743719;88;20778;-82
2023/12/26 18:57:44;;;;;;;;;;;7.50;99.90;;;;;;6743312;88;20058;-82
2023/12/26 19:07:45;;;;;;;;;;;7.50;99.90;;;;;;6744074;88;20069;-82
2023/12/26 19:17:45;;;;;;;;;;;7.50;99.90;;;;;;6743883;88;20058;-81
2023/12/26 19:27:46;;;;;;;;;;;7.50;99.90;;;;;;6743849;88;20062;-82
2023/12/26 19:37:46;;;;;;;;;;;7.50;99.90;;;;;;6744631;88;20074;-82
2023/12/26 19:47:47;;;;;;;;;;;7.50;99.90;;;;;;6746382;88;20061;-85
2023/12/26 19:57:47;;;;;;;;;;;7.50;99.90;;;;;;6746111;88;20082;-82
2023/12/26 20:07:48;;;;;;;;;;;7.30;99.90;;;;;;6746529;88;20064;-83
2023/12/26 20:17:48;;;;;;;;;;;7.20;99.90;;;;;;6746121;88;20063;-84
2023/12/26 20:27:49;;;;;;;;;;;7.10;99.90;;;;;;6751624;88;20065;-80
2023/12/26 20:37:49;;;;;;;;;;;7.10;99.90;;;;;;6767096;87;20067;-81
2023/12/26 20:47:50;;;;;;;;;;;7.00;99.90;;;;;;6766923;87;20720;-81
2023/12/26 20:57:50;;;;;;;;;;;6.80;99.90;;;;;;6766909;87;20189;-79
2023/12/26 21:07:51;;;;;;;;;;;6.70;99.90;;;;;;6759239;87;20047;-79
2023/12/26 21:17:52;;;;;;;;;;;6.60;99.90;;;;;;6747461;88;20039;-80
2023/12/26 21:27:52;;;;;;;;;;;6.50;99.90;;;;;;6752147;87;20093;-79
2023/12/26 21:37:53;;;;;;;;;;;6.60;99.90;;;;;;6769416;87;20444;-81
2023/12/26 21:47:53;;;;;;;;;;;6.40;99.90;;;;;;6769288;87;20099;-79
2023/12/26 21:57:53;;;;;;;;;;;6.30;99.90;;;;;;6769162;87;21677;-80
2023/12/26 22:07:54;;;;;;;;;;;6.00;99.90;;;;;;6769262;87;20069;-79
2023/12/26 22:17:54;;;;;;;;;;;5.60;99.90;;;;;;6769163;87;20030;-79
2023/12/26 22:27:55;;;;;;;;;;;5.60;99.90;;;;;;6768957;87;20858;-80
2023/12/26 22:37:55;;;;;;;;;;;5.60;99.90;;;;;;6768809;87;20038;-79
2023/12/26 22:47:56;;;;;;;;;;;5.60;99.90;;;;;;6768925;87;20034;-80
2023/12/26 22:57:56;;;;;;;;;;;5.20;99.90;;;;;;6768363;87;20086;-79
2023/12/26 23:07:57;;;;;;;;;;;5.10;99.90;;;;;;6768353;87;20025;-81
2023/12/26 23:17:58;;;;;;;;;;;5.00;99.90;;;;;;6767507;87;20062;-80
2023/12/26 23:27:58;;;;;;;;;;;4.90;99.90;;;;;;6767996;87;20110;-84
2023/12/26 23:37:58;;;;;;;;;;;5.00;99.90;;;;;;6767910;87;20084;-83
2023/12/26 23:47:59;;;;;;;;;;;5.00;99.90;;;;;;6767645;87;20686;-83
2023/12/26 23:57:59;;;;;;;;;;;4.90;99.90;;;;;;6767682;87;20088;-83
